Time;durP1;ratioP1;P1;durP2;ratioP2;P2;SDS_P1;SDS_P2;PMS_P1;PMS_P2;Temp;Humidity;BMP_temperature;BMP_pressure;BME280_temperature;BME280_humidity;BME280_pressure;Samples;Min_cycle;Max_cycle;Signal;HPM_P1;HPM_P2
2022/01/08 00:01:48;;;;;;;18.33;16.33;;;;;;;;;;5121599;27;24763;-57
2022/01/08 00:04:13;;;;;;;18.24;16.14;;;;;;;;;;5124489;27;24424;-57
2022/01/08 00:06:38;;;;;;;16.80;15.10;;;;;;;;;;5117975;27;24409;-57
2022/01/08 00:09:04;;;;;;;18.50;16.60;;;;;;;;;;5118522;27;24409;-57
2022/01/08 00:11:29;;;;;;;17.00;15.20;;;;;;;;;;5123763;27;24439;-57
2022/01/08 00:13:54;;;;;;;16.30;14.40;;;;;;;;;;5122440;27;24855;-58
2022/01/08 00:16:20;;;;;;;16.73;15.03;;;;;;;;;;5118581;27;25014;-57
2022/01/08 00:18:45;;;;;;;17.88;15.98;;;;;;;;;;5120338;27;24416;-57
2022/01/08 00:21:10;;;;;;;18.43;16.53;;;;;;;;;;5110963;27;24562;-57
2022/01/08 00:23:35;;;;;;;17.17;15.00;;;;;;;;;;5120137;27;24423;-58
2022/01/08 00:26:00;;;;;;;15.40;13.80;;;;;;;;;;5122372;27;24428;-58
2022/01/08 00:28:26;;;;;;;16.27;14.57;;;;;;;;;;5121350;27;24439;-56
2022/01/08 00:30:51;;;;;;;15.93;14.23;;;;;;;;;;5116687;27;25035;-57
2022/01/08 00:33:17;;;;;;;16.00;14.30;;;;;;;;;;5119872;27;24421;-57
2022/01/08 00:35:42;;;;;;;16.47;14.77;;;;;;;;;;5123994;27;24934;-56
2022/01/08 00:38:07;;;;;;;16.38;14.68;;;;;;;;;;5121524;27;24421;-57
2022/01/08 00:40:32;;;;;;;16.30;14.67;;;;;;;;;;5121220;27;24469;-57
2022/01/08 00:42:58;;;;;;;17.42;15.63;;;;;;;;;;5110396;27;24417;-57
2022/01/08 00:45:23;;;;;;;13.80;12.40;;;;;;;;;;5118632;27;24840;-58
2022/01/08 00:47:48;;;;;;;16.10;14.40;;;;;;;;;;5121544;27;24439;-57
2022/01/08 00:50:13;;;;;;;15.55;13.88;;;;;;;;;;5123249;27;24480;-57
2022/01/08 00:52:39;;;;;;;15.60;13.93;;;;;;;;;;5121152;27;24425;-58
2022/01/08 00:55:05;;;;;;;15.95;13.95;;;;;;;;;;5119579;27;24405;-58
2022/01/08 00:57:30;;;;;;;15.27;13.67;;;;;;;;;;5117132;27;24483;-58
2022/01/08 00:59:55;;;;;;;16.40;14.17;;;;;;;;;;5119678;27;24558;-58
2022/01/08 01:02:20;;;;;;;15.70;14.10;;;;;;;;;;5122918;27;25016;-58
2022/01/08 01:04:45;;;;;;;16.08;14.48;;;;;;;;;;5122752;27;24505;-59
2022/01/08 01:07:11;;;;;;;14.30;12.80;;;;;;;;;;5117781;27;24507;-59
2022/01/08 01:09:36;;;;;;;15.00;13.40;;;;;;;;;;5116465;27;24424;-57
2022/01/08 01:12:01;;;;;;;15.45;13.93;;;;;;;;;;5120599;27;24527;-58
2022/01/08 01:14:26;;;;;;;16.63;14.93;;;;;;;;;;5119828;27;24416;-58
2022/01/08 01:16:52;;;;;;;15.60;14.00;;;;;;;;;;5120974;27;25101;-56
2022/01/08 01:19:17;;;;;;;14.52;13.02;;;;;;;;;;5117762;27;24412;-58
2022/01/08 01:21:42;;;;;;;14.17;12.77;;;;;;;;;;5118430;27;24409;-57
2022/01/08 01:24:14;;;;;;;14.80;13.32;;;;;;;;;;5115177;28;24417;-57
2022/01/08 01:26:47;;;;;;;15.98;14.38;;;;;;;;;;5120434;28;24991;-58
2022/01/08 01:48:11;;;;;;;14.38;12.85;;;;;;;;;;5116146;28;24485;-58
2022/01/08 01:50:36;;;;;;;12.52;11.23;;;;;;;;;;5115963;28;24877;-57
2022/01/08 01:53:01;;;;;;;11.00;9.90;;;;;;;;;;5122388;28;24413;-57
2022/01/08 01:55:26;;;;;;;11.10;10.00;;;;;;;;;;5122337;28;24847;-57
2022/01/08 01:57:52;;;;;;;11.60;9.90;;;;;;;;;;5118853;28;24416;-57
2022/01/08 02:00:17;;;;;;;10.68;9.57;;;;;;;;;;5109273;28;24405;-58
2022/01/08 02:02:43;;;;;;;12.33;11.03;;;;;;;;;;5117972;28;24427;-57
2022/01/08 02:05:08;;;;;;;13.37;11.60;;;;;;;;;;5121058;28;24413;-57
2022/01/08 02:07:33;;;;;;;12.67;11.30;;;;;;;;;;5122509;28;24420;-57
2022/01/08 02:09:58;;;;;;;11.43;10.30;;;;;;;;;;5121117;28;24844;-57
2022/01/08 02:12:24;;;;;;;11.83;10.60;;;;;;;;;;5119851;28;24988;-58
2022/01/08 02:14:50;;;;;;;11.33;10.13;;;;;;;;;;5116083;28;24474;-57
2022/01/08 02:17:15;;;;;;;11.50;10.30;;;;;;;;;;5121091;28;24409;-57
2022/01/08 02:19:41;;;;;;;11.80;10.50;;;;;;;;;;5122338;28;24474;-57
2022/01/08 02:22:09;;;;;;;10.87;9.77;;;;;;;;;;5116106;27;25049;-58
2022/01/08 02:24:34;;;;;;;11.90;10.70;;;;;;;;;;5123283;27;24462;-57
2022/01/08 02:26:59;;;;;;;10.40;9.30;;;;;;;;;;5120475;27;24566;-57
2022/01/08 02:29:25;;;;;;;10.82;9.63;;;;;;;;;;5126199;27;24416;-57
2022/01/08 02:31:53;;;;;;;13.98;11.68;;;;;;;;;;5125259;27;24432;-57
2022/01/08 02:34:18;;;;;;;12.70;11.30;;;;;;;;;;5123485;27;25030;-57
2022/01/08 02:36:43;;;;;;;12.70;11.20;;;;;;;;;;5121406;27;24528;-58
2022/01/08 02:39:09;;;;;;;12.90;11.27;;;;;;;;;;5116900;27;24401;-58
2022/01/08 02:41:34;;;;;;;12.83;11.53;;;;;;;;;;5124123;27;24475;-58
2022/01/08 02:43:59;;;;;;;12.67;11.43;;;;;;;;;;5123365;27;24957;-57
2022/01/08 02:46:24;;;;;;;12.70;10.20;;;;;;;;;;5126099;27;24435;-58
2022/01/08 02:48:49;;;;;;;10.83;9.73;;;;;;;;;;5125269;27;24791;-58
2022/01/08 02:51:14;;;;;;;10.87;9.77;;;;;;;;;;5122035;27;24429;-59
2022/01/08 02:53:40;;;;;;;12.00;10.70;;;;;;;;;;5118701;27;24420;-59
2022/01/08 02:56:06;;;;;;;11.38;10.23;;;;;;;;;;5123906;27;24496;-58
2022/01/08 02:58:32;;;;;;;11.45;10.25;;;;;;;;;;5125216;27;24996;-58
2022/01/08 03:00:57;;;;;;;11.77;10.57;;;;;;;;;;5122761;27;24425;-58
2022/01/08 03:03:22;;;;;;;11.65;10.45;;;;;;;;;;5122374;27;24536;-58
2022/01/08 03:05:47;;;;;;;11.80;10.60;;;;;;;;;;5118550;27;24455;-58
2022/01/08 03:08:13;;;;;;;12.23;11.02;;;;;;;;;;5123385;27;24446;-57
2022/01/08 03:10:38;;;;;;;12.30;11.00;;;;;;;;;;5125628;27;24455;-57
2022/01/08 03:13:04;;;;;;;13.17;10.90;;;;;;;;;;5123379;27;24974;-56
2022/01/08 03:15:32;;;;;;;12.40;11.10;;;;;;;;;;5119163;27;24424;-57
2022/01/08 03:17:57;;;;;;;13.65;11.40;;;;;;;;;;5115837;27;24775;-57
2022/01/08 03:20:22;;;;;;;13.25;11.85;;;;;;;;;;5122098;27;24890;-57
2022/01/08 03:22:47;;;;;;;12.20;10.90;;;;;;;;;;5122783;27;24536;-57
2022/01/08 03:25:13;;;;;;;12.97;11.67;;;;;;;;;;5124087;27;24420;-57
2022/01/08 03:27:41;;;;;;;12.50;10.70;;;;;;;;;;5124263;27;24524;-57
2022/01/08 03:30:06;;;;;;;13.50;12.10;;;;;;;;;;5121333;27;25153;-57
2022/01/08 03:32:32;;;;;;;13.20;11.88;;;;;;;;;;5114498;27;24994;-56
2022/01/08 03:34:57;;;;;;;12.50;11.10;;;;;;;;;;5123854;27;24444;-57
2022/01/08 03:37:22;;;;;;;13.33;11.70;;;;;;;;;;5123876;27;24974;-57
2022/01/08 03:39:47;;;;;;;12.80;11.50;;;;;;;;;;5113462;27;24490;-58
2022/01/08 03:42:12;;;;;;;12.00;10.80;;;;;;;;;;5124384;27;24413;-59
2022/01/08 03:44:37;;;;;;;13.45;12.15;;;;;;;;;;5124771;27;24824;-58
2022/01/08 03:49:47;;;;;;;13.68;12.27;;;;;;;;;;5117270;27;24412;-59
2022/01/08 03:52:12;;;;;;;13.70;12.30;;;;;;;;;;5119285;27;24504;-58
2022/01/08 03:54:37;;;;;;;14.30;12.80;;;;;;;;;;5118943;27;24414;-58
2022/01/08 03:57:03;;;;;;;14.10;12.70;;;;;;;;;;5118610;27;24483;-57
2022/01/08 03:59:28;;;;;;;12.70;11.40;;;;;;;;;;5117864;27;24466;-58
2022/01/08 04:01:53;;;;;;;12.80;11.50;;;;;;;;;;5123982;27;24466;-57
2022/01/08 04:04:18;;;;;;;12.45;11.15;;;;;;;;;;5118960;27;24467;-59
2022/01/08 04:06:43;;;;;;;11.90;10.70;;;;;;;;;;5115697;27;24458;-58
2022/01/08 04:09:09;;;;;;;11.88;10.68;;;;;;;;;;5124718;27;24494;-58
2022/01/08 04:11:34;;;;;;;12.80;11.50;;;;;;;;;;5123916;27;24467;-59
2022/01/08 04:13:59;;;;;;;12.13;10.93;;;;;;;;;;5122922;27;24441;-59
2022/01/08 04:16:30;;;;;;;12.30;11.00;;;;;;;;;;5111928;27;24446;-59
2022/01/08 04:18:56;;;;;;;12.77;11.48;;;;;;;;;;5118855;27;24827;-57
2022/01/08 04:21:58;;;;;;;13.80;12.30;;;;;;;;;;5122121;27;24454;-58
2022/01/08 04:24:12;;;;;;;12.60;11.30;;;;;;;;;;5122686;27;24408;-58
2022/01/08 04:26:37;;;;;;;13.37;11.97;;;;;;;;;;5117579;27;24711;-58
2022/01/08 04:29:05;;;;;;;13.23;11.80;;;;;;;;;;5107239;27;24447;-58
2022/01/08 04:31:30;;;;;;;11.95;10.75;;;;;;;;;;5123794;27;24938;-58
2022/01/08 04:33:56;;;;;;;12.60;11.20;;;;;;;;;;5122654;27;24458;-57
2022/01/08 04:36:21;;;;;;;12.00;10.80;;;;;;;;;;5119791;27;24441;-58
2022/01/08 04:38:46;;;;;;;13.00;11.70;;;;;;;;;;5109852;27;24505;-59
2022/01/08 04:41:11;;;;;;;13.23;11.83;;;;;;;;;;5119170;27;25297;-58
2022/01/08 04:43:38;;;;;;;12.50;11.30;;;;;;;;;;5124575;27;24432;-58
2022/01/08 04:46:04;;;;;;;14.20;11.90;;;;;;;;;;5121382;27;24416;-58
2022/01/08 04:48:29;;;;;;;12.30;11.00;;;;;;;;;;5119677;27;24760;-58
2022/01/08 04:50:54;;;;;;;13.17;11.77;;;;;;;;;;5116699;27;24469;-58
2022/01/08 04:53:19;;;;;;;13.32;11.52;;;;;;;;;;5124273;27;24451;-58
2022/01/08 04:55:44;;;;;;;12.43;10.90;;;;;;;;;;5123636;27;24408;-58
2022/01/08 04:58:09;;;;;;;12.00;10.80;;;;;;;;;;5121518;27;24566;-57
2022/01/08 05:00:37;;;;;;;12.20;10.90;;;;;;;;;;5118139;27;24421;-57
2022/01/08 05:03:02;;;;;;;10.23;9.23;;;;;;;;;;5114913;27;24405;-57
2022/01/08 05:05:27;;;;;;;10.60;9.60;;;;;;;;;;5120717;27;24481;-57
2022/01/08 05:07:52;;;;;;;11.30;10.10;;;;;;;;;;5121070;27;24504;-58
2022/01/08 05:10:18;;;;;;;11.10;9.80;;;;;;;;;;5122886;27;24424;-57
2022/01/08 05:12:43;;;;;;;10.73;9.73;;;;;;;;;;5119701;27;24497;-57
2022/01/08 05:15:08;;;;;;;11.47;10.27;;;;;;;;;;5118205;27;24504;-58
2022/01/08 05:17:35;;;;;;;11.33;10.13;;;;;;;;;;5118313;27;24922;-56
2022/01/08 05:20:03;;;;;;;11.15;10.00;;;;;;;;;;5119129;27;25040;-57
2022/01/08 05:22:31;;;;;;;11.40;10.20;;;;;;;;;;5121404;27;24461;-57
2022/01/08 05:24:56;;;;;;;11.55;10.45;;;;;;;;;;5121476;28;24424;-57
2022/01/08 05:27:22;;;;;;;12.33;11.13;;;;;;;;;;5121376;28;24421;-60
2022/01/08 05:29:48;;;;;;;12.40;11.10;;;;;;;;;;5116772;28;24424;-57
2022/01/08 05:32:16;;;;;;;11.90;10.70;;;;;;;;;;5122750;28;24851;-57
2022/01/08 05:34:46;;;;;;;11.60;10.40;;;;;;;;;;5122409;28;25044;-59
2022/01/08 05:37:11;;;;;;;11.40;10.20;;;;;;;;;;5119601;28;24536;-58
2022/01/08 05:39:36;;;;;;;11.30;10.10;;;;;;;;;;5118134;28;24516;-57
2022/01/08 05:42:01;;;;;;;11.10;9.90;;;;;;;;;;5121222;28;24402;-57
2022/01/08 05:44:26;;;;;;;10.60;9.50;;;;;;;;;;5116852;28;24405;-57
2022/01/08 05:46:52;;;;;;;9.98;8.98;;;;;;;;;;5120731;28;24416;-57
2022/01/08 05:49:17;;;;;;;10.50;9.40;;;;;;;;;;5117519;28;24428;-59
2022/01/08 05:51:42;;;;;;;11.00;9.60;;;;;;;;;;5117899;28;24679;-58
2022/01/08 05:54:07;;;;;;;10.80;9.70;;;;;;;;;;5122847;28;24413;-59
2022/01/08 05:56:33;;;;;;;9.50;8.60;;;;;;;;;;5123990;27;24428;-57
2022/01/08 05:58:58;;;;;;;10.18;9.18;;;;;;;;;;5119766;27;25071;-58
2022/01/08 06:01:23;;;;;;;11.30;9.40;;;;;;;;;;5121611;27;24401;-59
2022/01/08 06:03:48;;;;;;;10.35;9.35;;;;;;;;;;5124377;27;24771;-58
2022/01/08 06:06:13;;;;;;;10.70;9.60;;;;;;;;;;5123243;27;25054;-58
2022/01/08 06:08:38;;;;;;;10.77;9.38;;;;;;;;;;5127658;27;24405;-57
2022/01/08 06:11:04;;;;;;;10.95;9.85;;;;;;;;;;5122470;27;24458;-58
2022/01/08 06:13:29;;;;;;;10.52;9.43;;;;;;;;;;5119305;27;24947;-58
2022/01/08 06:15:54;;;;;;;10.50;9.43;;;;;;;;;;5124409;27;24421;-59
2022/01/08 06:18:19;;;;;;;10.85;9.75;;;;;;;;;;5112791;27;24409;-58
2022/01/08 06:20:44;;;;;;;11.50;10.40;;;;;;;;;;5123647;27;24474;-58
2022/01/08 06:23:09;;;;;;;12.27;10.90;;;;;;;;;;5119931;27;24428;-57
2022/01/08 06:25:35;;;;;;;11.63;10.43;;;;;;;;;;5109874;27;24495;-58
2022/01/08 06:28:00;;;;;;;11.63;10.43;;;;;;;;;;5119012;27;24518;-58
2022/01/08 06:30:25;;;;;;;11.80;10.60;;;;;;;;;;5119275;27;24482;-58
2022/01/08 06:32:50;;;;;;;12.63;11.32;;;;;;;;;;5116871;27;24416;-59
2022/01/08 06:35:15;;;;;;;10.90;9.90;;;;;;;;;;5118483;27;24469;-58
2022/01/08 06:37:40;;;;;;;11.60;10.40;;;;;;;;;;5114993;27;24990;-57
2022/01/08 06:40:06;;;;;;;11.50;10.40;;;;;;;;;;5125378;27;24420;-57
2022/01/08 06:42:31;;;;;;;11.13;10.03;;;;;;;;;;5124369;27;24436;-57
2022/01/08 06:44:56;;;;;;;12.37;11.17;;;;;;;;;;5120065;27;24599;-58
2022/01/08 06:47:21;;;;;;;12.07;10.77;;;;;;;;;;5118021;27;24417;-57
2022/01/08 06:49:46;;;;;;;10.60;9.60;;;;;;;;;;5122118;27;24781;-60
2022/01/08 06:52:11;;;;;;;11.07;9.98;;;;;;;;;;5126165;27;24405;-58
2022/01/08 06:54:37;;;;;;;11.68;10.48;;;;;;;;;;5124893;27;24444;-58
2022/01/08 06:57:02;;;;;;;11.07;9.87;;;;;;;;;;5123441;27;25037;-57
2022/01/08 06:59:27;;;;;;;11.05;10.02;;;;;;;;;;5118228;27;24444;-58
2022/01/08 07:01:53;;;;;;;12.10;11.00;;;;;;;;;;5116861;27;24543;-57
2022/01/08 07:04:18;;;;;;;13.20;11.85;;;;;;;;;;5126213;27;24415;-59
2022/01/08 07:06:43;;;;;;;12.60;11.10;;;;;;;;;;5116189;27;24465;-59
2022/01/08 07:09:08;;;;;;;11.97;10.77;;;;;;;;;;5118433;27;24421;-57
2022/01/08 07:11:33;;;;;;;12.67;11.23;;;;;;;;;;5123657;27;24420;-57
2022/01/08 07:13:58;;;;;;;13.15;11.85;;;;;;;;;;5123559;27;24532;-57
2022/01/08 07:16:24;;;;;;;12.48;11.20;;;;;;;;;;5123157;27;24518;-58
2022/01/08 07:18:49;;;;;;;11.98;10.77;;;;;;;;;;5119593;27;24463;-57
2022/01/08 07:21:14;;;;;;;11.70;10.60;;;;;;;;;;5125051;27;24505;-57
2022/01/08 07:23:39;;;;;;;12.67;11.37;;;;;;;;;;5125334;27;24408;-57
2022/01/08 07:26:04;;;;;;;12.80;11.50;;;;;;;;;;5120618;27;24432;-57
2022/01/08 07:28:29;;;;;;;12.40;11.20;;;;;;;;;;5115564;27;24852;-58
2022/01/08 07:30:54;;;;;;;13.13;11.83;;;;;;;;;;5122913;27;25020;-58
2022/01/08 07:33:20;;;;;;;12.60;11.40;;;;;;;;;;5124426;27;24441;-58
2022/01/08 07:35:45;;;;;;;11.48;10.38;;;;;;;;;;5123757;27;24442;-58
2022/01/08 07:38:10;;;;;;;12.88;11.57;;;;;;;;;;5117470;27;24753;-57
2022/01/08 07:40:35;;;;;;;12.70;11.50;;;;;;;;;;5118952;27;24562;-57
2022/01/08 07:43:00;;;;;;;11.52;10.43;;;;;;;;;;5124865;27;24401;-58
2022/01/08 07:45:25;;;;;;;12.20;11.00;;;;;;;;;;5114230;27;24435;-58
2022/01/08 07:47:51;;;;;;;12.30;11.00;;;;;;;;;;5119619;27;24520;-59
2022/01/08 07:50:16;;;;;;;13.40;12.10;;;;;;;;;;5108445;27;25000;-58
2022/01/08 07:52:43;;;;;;;14.10;12.70;;;;;;;;;;5115936;27;24969;-57
2022/01/08 07:55:08;;;;;;;13.93;12.63;;;;;;;;;;5110700;27;24473;-59
2022/01/08 07:57:33;;;;;;;15.18;13.68;;;;;;;;;;5115739;27;24843;-58
2022/01/08 07:59:58;;;;;;;16.02;14.40;;;;;;;;;;5121156;27;24416;-57
2022/01/08 08:02:24;;;;;;;17.70;15.90;;;;;;;;;;5122243;27;24555;-59
2022/01/08 08:04:49;;;;;;;17.53;15.73;;;;;;;;;;5124387;27;24668;-59
2022/01/08 08:07:24;;;;;;;17.30;15.40;;;;;;;;;;5117281;27;24431;-58
2022/01/08 08:09:49;;;;;;;14.60;13.20;;;;;;;;;;5110176;27;24509;-58
2022/01/08 08:12:15;;;;;;;12.60;11.40;;;;;;;;;;5119831;27;24827;-58
2022/01/08 08:14:40;;;;;;;12.40;11.20;;;;;;;;;;5111278;27;24418;-58
2022/01/08 08:17:05;;;;;;;12.23;11.02;;;;;;;;;;5117737;27;24501;-58
2022/01/08 08:19:30;;;;;;;12.85;11.57;;;;;;;;;;5111765;27;24859;-59
2022/01/08 08:21:56;;;;;;;13.30;11.90;;;;;;;;;;5119006;27;24432;-59
2022/01/08 08:24:21;;;;;;;12.93;11.73;;;;;;;;;;5121206;27;25009;-58
2022/01/08 08:26:46;;;;;;;13.10;11.80;;;;;;;;;;5119835;27;24413;-58
2022/01/08 08:29:11;;;;;;;11.73;10.63;;;;;;;;;;5121309;27;24520;-58
2022/01/08 08:31:36;;;;;;;12.83;11.20;;;;;;;;;;5117391;27;24986;-58
2022/01/08 08:34:01;;;;;;;13.37;12.03;;;;;;;;;;5110892;27;24540;-58
2022/01/08 08:36:27;;;;;;;13.10;11.70;;;;;;;;;;5113203;27;24456;-58
2022/01/08 08:38:52;;;;;;;11.90;10.70;;;;;;;;;;5114270;27;25783;-58
2022/01/08 08:41:17;;;;;;;12.20;11.00;;;;;;;;;;5120464;27;25202;-58
2022/01/08 08:43:42;;;;;;;12.73;11.43;;;;;;;;;;5115571;27;25004;-57
2022/01/08 08:46:07;;;;;;;13.80;12.30;;;;;;;;;;5109226;27;24420;-57
2022/01/08 08:48:33;;;;;;;14.00;12.60;;;;;;;;;;5111345;27;24425;-58
2022/01/08 08:50:58;;;;;;;13.10;11.82;;;;;;;;;;5112720;27;24974;-57
2022/01/08 08:53:23;;;;;;;13.40;12.10;;;;;;;;;;5112810;27;24417;-57
2022/01/08 08:55:49;;;;;;;12.53;11.30;;;;;;;;;;5116198;27;25187;-59
2022/01/08 08:58:14;;;;;;;12.97;11.67;;;;;;;;;;5120489;27;24405;-57
2022/01/08 09:00:40;;;;;;;13.10;11.80;;;;;;;;;;5117049;27;24421;-58
2022/01/08 09:03:05;;;;;;;12.17;11.07;;;;;;;;;;5117950;27;24504;-57
2022/01/08 09:05:30;;;;;;;12.60;11.30;;;;;;;;;;5109194;27;24402;-58
2022/01/08 09:07:55;;;;;;;11.65;10.50;;;;;;;;;;5120977;27;25027;-58
2022/01/08 09:10:25;;;;;;;12.77;11.57;;;;;;;;;;5117256;27;24429;-58
2022/01/08 09:12:50;;;;;;;11.43;10.32;;;;;;;;;;5101902;28;24402;-58
2022/01/08 09:15:16;;;;;;;13.83;12.33;;;;;;;;;;5107129;27;24469;-58
2022/01/08 09:17:41;;;;;;;13.60;11.93;;;;;;;;;;5114300;27;24476;-58
2022/01/08 09:20:07;;;;;;;14.27;12.00;;;;;;;;;;5113713;27;25264;-57
2022/01/08 09:22:32;;;;;;;12.68;11.38;;;;;;;;;;5116095;27;24432;-58
2022/01/08 09:24:58;;;;;;;12.13;10.93;;;;;;;;;;5119176;27;24830;-58
2022/01/08 09:27:23;;;;;;;12.87;11.67;;;;;;;;;;5123074;28;24409;-58
2022/01/08 09:29:49;;;;;;;16.23;14.52;;;;;;;;;;5123574;28;24439;-58
2022/01/08 09:32:14;;;;;;;16.73;15.03;;;;;;;;;;5121758;27;24428;-59
2022/01/08 09:34:39;;;;;;;14.83;12.60;;;;;;;;;;5121714;27;24432;-58
2022/01/08 09:37:05;;;;;;;16.20;14.50;;;;;;;;;;5124579;27;24441;-58
2022/01/08 09:39:30;;;;;;;12.80;11.60;;;;;;;;;;5127519;27;24986;-58
2022/01/08 09:41:55;;;;;;;14.80;13.10;;;;;;;;;;5121675;27;24441;-57
2022/01/08 09:44:20;;;;;;;14.80;13.30;;;;;;;;;;5124721;27;24448;-57
2022/01/08 09:46:45;;;;;;;14.63;13.30;;;;;;;;;;5127119;27;24410;-57
2022/01/08 09:49:11;;;;;;;14.70;13.30;;;;;;;;;;5125593;27;24409;-58
2022/01/08 09:51:36;;;;;;;16.30;14.70;;;;;;;;;;5127085;27;24433;-57
2022/01/08 09:54:02;;;;;;;14.10;12.80;;;;;;;;;;5120896;27;24421;-59
2022/01/08 09:56:29;;;;;;;14.70;13.30;;;;;;;;;;5125719;27;24424;-58
2022/01/08 09:58:55;;;;;;;12.47;11.27;;;;;;;;;;5125996;27;24832;-59
2022/01/08 10:01:23;;;;;;;15.80;14.20;;;;;;;;;;5127572;27;24432;-60
2022/01/08 10:03:49;;;;;;;14.70;13.20;;;;;;;;;;5124061;27;24470;-59
2022/01/08 10:06:19;;;;;;;15.27;13.73;;;;;;;;;;5119554;27;25209;-58
2022/01/08 10:08:45;;;;;;;16.52;14.88;;;;;;;;;;5126137;27;24771;-58
2022/01/08 10:11:10;;;;;;;14.63;13.13;;;;;;;;;;5125836;27;24409;-59
2022/01/08 10:13:39;;;;;;;15.73;14.13;;;;;;;;;;5127592;27;24480;-58
2022/01/08 10:18:52;;;;;;;18.80;16.90;;;;;;;;;;5126229;27;24471;-59
2022/01/08 10:21:17;;;;;;;16.73;14.93;;;;;;;;;;5127123;27;24409;-58
2022/01/08 10:23:43;;;;;;;15.70;14.10;;;;;;;;;;5127387;27;24404;-58
2022/01/08 10:26:13;;;;;;;17.25;15.55;;;;;;;;;;5124752;27;24425;-58
2022/01/08 10:28:43;;;;;;;16.00;14.18;;;;;;;;;;5119031;27;24420;-58
2022/01/08 10:31:17;;;;;;;16.02;14.43;;;;;;;;;;5123410;27;24412;-59
2022/01/08 10:33:44;;;;;;;15.05;13.55;;;;;;;;;;5125512;27;24915;-58
2022/01/08 10:36:11;;;;;;;15.80;14.10;;;;;;;;;;5124367;27;24433;-57
2022/01/08 10:38:36;;;;;;;15.70;14.10;;;;;;;;;;5126999;27;24415;-58
2022/01/08 10:41:02;;;;;;;14.90;13.40;;;;;;;;;;5125249;27;24535;-58
2022/01/08 10:43:32;;;;;;;16.03;14.43;;;;;;;;;;5124774;27;24961;-59
2022/01/08 10:46:08;;;;;;;16.67;15.05;;;;;;;;;;5121530;27;24420;-57
2022/01/08 10:48:33;;;;;;;15.60;14.00;;;;;;;;;;5115212;27;24689;-57
2022/01/08 10:51:12;;;;;;;17.27;14.55;;;;;;;;;;5103996;28;24524;-57
2022/01/08 10:53:51;;;;;;;16.80;15.20;;;;;;;;;;5118923;27;24414;-58
2022/01/08 10:56:37;;;;;;;17.52;15.82;;;;;;;;;;5119149;27;24420;-57
2022/01/08 10:59:07;;;;;;;18.70;16.80;;;;;;;;;;5125403;27;24413;-57
2022/01/08 11:01:38;;;;;;;17.43;15.63;;;;;;;;;;5126163;27;24485;-59
2022/01/08 11:04:05;;;;;;;20.02;17.83;;;;;;;;;;5119236;27;24428;-57
2022/01/08 11:06:30;;;;;;;18.90;16.90;;;;;;;;;;5109033;27;24429;-57
2022/01/08 11:08:59;;;;;;;19.20;17.00;;;;;;;;;;5121390;27;24428;-59
2022/01/08 11:11:29;;;;;;;20.02;17.92;;;;;;;;;;5123222;27;25224;-58
2022/01/08 11:13:54;;;;;;;19.50;17.35;;;;;;;;;;5109880;27;24542;-59
2022/01/08 11:16:20;;;;;;;18.10;16.30;;;;;;;;;;5120458;27;25002;-57
2022/01/08 11:18:45;;;;;;;19.20;17.00;;;;;;;;;;5115631;27;25050;-57
2022/01/08 11:21:10;;;;;;;18.40;16.50;;;;;;;;;;5120590;27;24402;-57
2022/01/08 11:23:36;;;;;;;18.83;16.92;;;;;;;;;;5119651;27;25058;-57
2022/01/08 11:26:01;;;;;;;20.38;18.23;;;;;;;;;;5116585;27;24421;-57
2022/01/08 11:28:34;;;;;;;19.58;17.48;;;;;;;;;;5109743;27;24736;-58
2022/01/08 11:31:01;;;;;;;19.50;17.50;;;;;;;;;;5112979;27;24426;-58
2022/01/08 11:33:31;;;;;;;21.80;19.45;;;;;;;;;;5123926;27;24994;-56
2022/01/08 11:35:57;;;;;;;18.92;16.88;;;;;;;;;;5110133;27;24493;-56
2022/01/08 11:38:22;;;;;;;19.83;17.75;;;;;;;;;;5124652;27;24547;-57
2022/01/08 11:40:49;;;;;;;21.98;19.27;;;;;;;;;;5124278;27;25135;-57
2022/01/08 11:43:15;;;;;;;20.57;18.37;;;;;;;;;;5120883;27;24405;-57
2022/01/08 11:45:47;;;;;;;19.83;16.95;;;;;;;;;;5122169;27;24420;-58
2022/01/08 11:48:12;;;;;;;19.48;17.48;;;;;;;;;;5118957;27;24413;-57
2022/01/08 11:50:38;;;;;;;18.20;16.50;;;;;;;;;;5116446;27;24428;-57
2022/01/08 11:53:17;;;;;;;19.40;16.90;;;;;;;;;;5123385;27;24409;-59
2022/01/08 11:55:44;;;;;;;19.05;17.10;;;;;;;;;;5115162;27;24982;-58
2022/01/08 11:58:20;;;;;;;21.20;18.90;;;;;;;;;;5112533;27;24421;-56
2022/01/08 12:00:46;;;;;;;19.58;16.73;;;;;;;;;;5107581;27;24550;-58
2022/01/08 12:03:22;;;;;;;19.48;17.50;;;;;;;;;;5114954;27;24429;-58
2022/01/08 12:05:47;;;;;;;22.27;17.55;;;;;;;;;;5120859;27;25119;-58
2022/01/08 12:08:15;;;;;;;22.33;19.93;;;;;;;;;;5112630;27;24440;-57
2022/01/08 12:10:58;;;;;;;22.83;19.42;;;;;;;;;;5115222;27;24417;-58
2022/01/08 12:13:42;;;;;;;20.85;18.75;;;;;;;;;;5117997;27;25160;-58
2022/01/08 12:16:27;;;;;;;22.20;20.00;;;;;;;;;;5117929;27;24608;-57
2022/01/08 12:18:53;;;;;;;21.33;18.80;;;;;;;;;;5114701;27;24428;-58
2022/01/08 12:21:31;;;;;;;21.10;18.90;;;;;;;;;;5118540;27;24828;-58
2022/01/08 12:23:59;;;;;;;21.50;19.30;;;;;;;;;;5109079;27;24421;-58
2022/01/08 12:26:24;;;;;;;21.10;18.90;;;;;;;;;;5112570;27;24759;-58
2022/01/08 12:28:53;;;;;;;21.10;18.90;;;;;;;;;;5108716;27;24834;-57
2022/01/08 12:31:47;;;;;;;21.40;19.30;;;;;;;;;;5115313;27;24863;-58
2022/01/08 12:34:29;;;;;;;21.40;19.20;;;;;;;;;;5120121;27;24409;-57
2022/01/08 12:37:01;;;;;;;21.60;19.40;;;;;;;;;;5115421;27;24994;-57
2022/01/08 12:39:44;;;;;;;21.70;19.40;;;;;;;;;;5118457;27;24432;-57
2022/01/08 12:42:18;;;;;;;21.55;19.38;;;;;;;;;;5119443;27;24432;-57
2022/01/08 12:44:57;;;;;;;21.58;19.27;;;;;;;;;;5120769;27;21289;-57
2022/01/08 12:47:40;;;;;;;22.70;20.30;;;;;;;;;;5107495;27;24424;-57
2022/01/08 12:50:24;;;;;;;21.45;19.25;;;;;;;;;;5106628;27;24538;-57
2022/01/08 12:53:04;;;;;;;22.15;20.05;;;;;;;;;;5119110;27;24582;-57
2022/01/08 12:55:33;;;;;;;21.67;19.48;;;;;;;;;;5113556;27;24417;-57
2022/01/08 12:57:58;;;;;;;21.42;19.23;;;;;;;;;;5117957;27;24437;-57
2022/01/08 13:00:24;;;;;;;22.07;19.60;;;;;;;;;;5115180;27;24475;-58
2022/01/08 13:02:49;;;;;;;22.87;20.53;;;;;;;;;;5119129;27;24416;-57
2022/01/08 13:05:15;;;;;;;24.25;20.50;;;;;;;;;;5119299;27;24497;-58
2022/01/08 13:07:50;;;;;;;21.30;19.00;;;;;;;;;;5121274;27;24916;-57
2022/01/08 13:10:16;;;;;;;22.75;20.45;;;;;;;;;;5119411;27;24436;-58
2022/01/08 13:12:41;;;;;;;25.13;22.42;;;;;;;;;;5119897;27;24405;-58
2022/01/08 13:15:06;;;;;;;25.33;22.43;;;;;;;;;;5110925;27;24469;-58
2022/01/08 13:17:31;;;;;;;24.03;21.43;;;;;;;;;;5113613;27;24806;-58
2022/01/08 13:20:02;;;;;;;23.85;21.42;;;;;;;;;;5113226;27;24428;-56
2022/01/08 13:22:27;;;;;;;22.92;20.55;;;;;;;;;;5120449;27;24457;-59
2022/01/08 13:24:52;;;;;;;22.20;19.80;;;;;;;;;;5118083;27;25047;-59
2022/01/08 13:27:20;;;;;;;23.63;21.10;;;;;;;;;;5116559;27;24767;-57
2022/01/08 13:29:46;;;;;;;23.90;21.40;;;;;;;;;;5107286;28;24429;-57
2022/01/08 13:32:12;;;;;;;26.37;22.67;;;;;;;;;;5108896;28;25007;-57
2022/01/08 13:34:39;;;;;;;25.27;22.20;;;;;;;;;;5113836;28;24417;-57
2022/01/08 13:37:06;;;;;;;22.90;20.40;;;;;;;;;;5115257;28;24437;-57
2022/01/08 13:39:33;;;;;;;22.00;19.60;;;;;;;;;;5117001;28;24541;-56
2022/01/08 13:42:13;;;;;;;22.38;19.98;;;;;;;;;;5112871;28;24478;-58
2022/01/08 13:44:39;;;;;;;21.75;19.63;;;;;;;;;;5116669;28;24540;-59
2022/01/08 13:47:05;;;;;;;22.35;19.95;;;;;;;;;;5117397;28;24421;-57
2022/01/08 13:49:30;;;;;;;23.83;21.33;;;;;;;;;;5114624;28;24435;-58
2022/01/08 13:51:56;;;;;;;24.97;21.60;;;;;;;;;;5114637;28;25048;-58
2022/01/08 13:54:31;;;;;;;23.95;20.88;;;;;;;;;;5120076;28;24504;-59
2022/01/08 13:57:09;;;;;;;23.08;20.77;;;;;;;;;;5116265;28;24442;-57
2022/01/08 13:59:34;;;;;;;21.38;19.17;;;;;;;;;;5111815;28;24416;-58
2022/01/08 14:02:02;;;;;;;21.90;19.60;;;;;;;;;;5118487;28;24397;-59
2022/01/08 14:04:28;;;;;;;22.00;19.60;;;;;;;;;;5116036;28;24453;-58
2022/01/08 14:06:53;;;;;;;21.90;19.70;;;;;;;;;;5120369;28;24763;-58
2022/01/08 14:09:19;;;;;;;22.23;19.83;;;;;;;;;;5119790;28;24417;-58
2022/01/08 14:11:46;;;;;;;22.70;20.20;;;;;;;;;;5112632;28;24478;-59
2022/01/08 14:14:17;;;;;;;23.58;20.35;;;;;;;;;;5106121;28;24557;-58
2022/01/08 14:16:42;;;;;;;22.42;20.10;;;;;;;;;;5107336;28;24414;-58
2022/01/08 14:19:15;;;;;;;23.73;21.23;;;;;;;;;;5114171;27;24420;-57
2022/01/08 14:21:52;;;;;;;22.90;20.60;;;;;;;;;;5116934;27;24501;-57
2022/01/08 14:24:19;;;;;;;23.67;21.17;;;;;;;;;;5125336;27;24421;-57
2022/01/08 14:27:02;;;;;;;22.17;19.77;;;;;;;;;;5112097;27;24413;-57
2022/01/08 14:29:28;;;;;;;24.00;21.57;;;;;;;;;;5121915;27;25284;-57
2022/01/08 14:31:54;;;;;;;24.73;22.03;;;;;;;;;;5115470;27;24444;-57
2022/01/08 14:34:22;;;;;;;25.20;22.50;;;;;;;;;;5118435;27;24461;-54
2022/01/08 14:36:59;;;;;;;24.40;21.00;;;;;;;;;;5119874;27;24437;-54
2022/01/08 14:39:30;;;;;;;24.75;22.10;;;;;;;;;;5122834;27;24450;-55
2022/01/08 14:41:56;;;;;;;24.27;21.67;;;;;;;;;;5123732;27;24417;-54